Time;durP1;ratioP1;P1;durP2;ratioP2;P2;SDS_P1;SDS_P2;PMS_P1;PMS_P2;Temp;Humidity;BMP_temperature;BMP_pressure;BME280_temperature;BME280_humidity;BME280_pressure;Samples;Min_cycle;Max_cycle;Signal;HPM_P1;HPM_P2
2021/05/07 00:02:06;;;;;;;21.70;19.00;;;6.10;99.90;;;;;;5113402;28;20178;-67
2021/05/07 00:04:32;;;;;;;19.67;17.77;;;6.10;99.90;;;;;;5114255;28;20155;-67
2021/05/07 00:06:57;;;;;;;19.07;17.37;;;6.10;99.90;;;;;;5114167;27;20219;-67
2021/05/07 00:09:23;;;;;;;18.20;16.40;;;6.10;99.90;;;;;;5113396;28;20198;-67
2021/05/07 00:11:48;;;;;;;20.00;18.07;;;6.10;99.90;;;;;;5113437;28;20264;-67
2021/05/07 00:14:14;;;;;;;19.83;17.93;;;6.10;99.90;;;;;;5113342;28;20212;-67
2021/05/07 00:16:40;;;;;;;20.70;18.70;;;6.10;99.90;;;;;;5113334;28;20158;-67
2021/05/07 00:19:06;;;;;;;21.17;18.20;;;6.10;99.90;;;;;;5113458;28;20179;-67
2021/05/07 00:21:34;;;;;;;20.50;17.70;;;6.10;99.90;;;;;;5113027;28;20470;-67
2021/05/07 00:24:00;;;;;;;23.87;19.20;;;6.10;99.90;;;;;;5113816;28;20443;-67
2021/05/07 00:26:26;;;;;;;24.47;21.87;;;6.10;99.90;;;;;;5113221;28;20452;-67
2021/05/07 00:28:52;;;;;;;22.10;19.70;;;6.00;99.90;;;;;;5112975;28;20409;-67
2021/05/07 00:31:17;;;;;;;21.90;19.60;;;6.00;99.90;;;;;;5113072;28;20163;-67
2021/05/07 00:33:43;;;;;;;21.07;19.13;;;5.90;99.90;;;;;;5113180;28;20170;-67
2021/05/07 00:36:09;;;;;;;21.20;18.93;;;5.90;99.90;;;;;;5113233;28;20614;-67
2021/05/07 00:38:34;;;;;;;21.10;19.00;;;5.90;99.90;;;;;;5113297;28;20173;-67
2021/05/07 00:41:00;;;;;;;20.87;18.87;;;5.90;99.90;;;;;;5113405;28;20783;-67
2021/05/07 00:43:26;;;;;;;20.67;18.50;;;5.90;99.90;;;;;;5113084;28;20142;-67
2021/05/07 00:45:51;;;;;;;18.43;16.63;;;5.90;99.90;;;;;;5113043;28;20868;-67
2021/05/07 00:48:18;;;;;;;17.30;15.20;;;5.90;99.90;;;;;;5113156;28;20585;-67
2021/05/07 00:50:46;;;;;;;16.80;15.17;;;5.90;99.90;;;;;;5113101;28;20155;-67
2021/05/07 00:53:13;;;;;;;17.37;15.47;;;5.90;99.90;;;;;;5113062;28;20391;-67
2021/05/07 00:55:39;;;;;;;17.23;15.53;;;5.80;99.90;;;;;;5112939;28;20386;-67
2021/05/07 00:58:05;;;;;;;17.37;15.57;;;5.90;99.90;;;;;;5113542;28;20966;-67
2021/05/07 01:00:32;;;;;;;15.30;13.77;;;5.90;99.90;;;;;;5112861;28;20423;-67
2021/05/07 01:02:59;;;;;;;16.47;14.87;;;5.90;99.90;;;;;;5112902;28;20481;-67
2021/05/07 01:05:25;;;;;;;14.50;13.00;;;5.90;99.90;;;;;;5113099;28;20445;-67
2021/05/07 01:07:51;;;;;;;17.27;15.47;;;5.90;99.90;;;;;;5113796;28;20389;-67
2021/05/07 01:10:18;;;;;;;17.33;15.33;;;6.00;99.90;;;;;;5116719;28;20396;-67
2021/05/07 01:12:44;;;;;;;16.30;14.80;;;6.00;99.90;;;;;;5116662;28;20488;-67
2021/05/07 01:17:49;;;;;;;18.03;16.33;;;6.00;99.90;;;;;;5106109;27;20515;-68
2021/05/07 01:23:01;;;;;;;20.57;18.60;;;6.10;99.90;;;;;;5110784;27;20502;-68
2021/05/07 01:25:29;;;;;;;18.87;17.07;;;6.10;99.90;;;;;;5110781;28;20390;-68
2021/05/07 01:27:58;;;;;;;21.63;19.43;;;6.10;99.90;;;;;;5110506;28;20403;-68
2021/05/07 01:33:03;;;;;;;22.70;20.40;;;6.10;99.90;;;;;;5111352;27;20622;-67
2021/05/07 01:35:31;;;;;;;23.07;20.33;;;6.10;99.90;;;;;;5110902;28;20451;-67
2021/05/07 01:37:59;;;;;;;21.80;19.53;;;6.10;99.90;;;;;;5110709;28;20393;-67
2021/05/07 01:40:27;;;;;;;21.50;19.43;;;6.10;99.90;;;;;;5110708;28;20400;-67
2021/05/07 01:42:54;;;;;;;23.13;20.90;;;6.10;99.90;;;;;;5110675;28;20397;-67
2021/05/07 01:45:23;;;;;;;24.40;21.80;;;6.10;99.90;;;;;;5110556;28;20885;-67
2021/05/07 01:47:49;;;;;;;24.80;22.40;;;6.10;99.90;;;;;;5110326;28;20481;-67
2021/05/07 01:50:18;;;;;;;23.10;20.70;;;6.20;99.90;;;;;;5110692;28;20389;-67
2021/05/07 01:52:43;;;;;;;25.17;22.67;;;6.20;99.90;;;;;;5110387;28;20443;-67
2021/05/07 01:55:11;;;;;;;23.40;21.00;;;6.20;99.90;;;;;;5110270;28;20399;-67
2021/05/07 01:57:38;;;;;;;25.03;22.60;;;6.20;99.90;;;;;;5110344;28;20154;-67
2021/05/07 02:00:11;;;;;;;23.20;21.00;;;6.20;99.90;;;;;;5110237;28;20440;-67
2021/05/07 02:02:36;;;;;;;27.00;23.90;;;6.20;99.90;;;;;;5110242;28;20394;-67
2021/05/07 02:05:04;;;;;;;23.70;21.40;;;6.20;99.90;;;;;;5110470;28;20928;-67
2021/05/07 02:07:30;;;;;;;24.80;22.30;;;6.20;99.90;;;;;;5110404;28;20521;-67
2021/05/07 02:09:55;;;;;;;24.33;21.90;;;6.20;99.90;;;;;;5110042;28;20426;-67
2021/05/07 02:12:21;;;;;;;25.73;23.23;;;6.30;99.90;;;;;;5110129;28;20179;-67
2021/05/07 02:14:47;;;;;;;24.30;22.20;;;6.30;99.90;;;;;;5110041;28;20166;-67
2021/05/07 02:17:12;;;;;;;26.00;22.90;;;6.30;99.90;;;;;;5110097;28;20164;-67
2021/05/07 02:19:38;;;;;;;26.50;23.80;;;6.30;99.90;;;;;;5110131;28;20156;-67
2021/05/07 02:22:03;;;;;;;24.60;22.30;;;6.30;99.90;;;;;;5109685;28;20186;-67
2021/05/07 02:24:29;;;;;;;23.60;21.30;;;6.40;99.90;;;;;;5109770;28;20176;-67
2021/05/07 02:26:54;;;;;;;24.33;21.93;;;6.40;99.90;;;;;;5107802;28;20156;-68
2021/05/07 02:29:20;;;;;;;24.07;21.77;;;6.40;99.90;;;;;;5089398;28;20158;-67
2021/05/07 02:31:46;;;;;;;24.40;22.00;;;6.40;99.90;;;;;;5089215;28;20389;-67
2021/05/07 02:34:12;;;;;;;24.90;22.40;;;6.40;99.90;;;;;;5089242;28;20534;-68
2021/05/07 02:36:39;;;;;;;24.03;21.70;;;6.40;99.90;;;;;;5089219;28;20205;-67
2021/05/07 02:39:05;;;;;;;24.27;21.80;;;6.40;99.90;;;;;;5092834;28;20419;-67
2021/05/07 02:41:32;;;;;;;26.07;23.47;;;6.50;99.90;;;;;;5109324;27;20479;-67
2021/05/07 02:43:57;;;;;;;24.70;22.30;;;6.50;99.90;;;;;;5098471;28;20398;-67
2021/05/07 02:46:23;;;;;;;24.37;21.97;;;6.50;99.90;;;;;;5096079;28;20451;-70
2021/05/07 02:48:49;;;;;;;25.27;22.67;;;6.50;99.90;;;;;;5096484;28;20391;-70
2021/05/07 02:51:14;;;;;;;25.37;22.67;;;6.50;99.90;;;;;;5095686;28;20195;-70
2021/05/07 02:53:40;;;;;;;24.50;22.20;;;6.50;99.90;;;;;;5095736;28;20616;-70
2021/05/07 02:56:05;;;;;;;25.33;22.97;;;6.50;99.90;;;;;;5095536;28;20183;-70
2021/05/07 02:58:31;;;;;;;25.47;22.93;;;6.60;99.90;;;;;;5095590;28;20663;-70
2021/05/07 03:00:56;;;;;;;25.23;22.83;;;6.50;99.90;;;;;;5095589;28;20577;-70
2021/05/07 03:03:22;;;;;;;26.57;23.77;;;6.60;99.90;;;;;;5096015;28;20157;-70
2021/05/07 03:05:47;;;;;;;27.63;24.77;;;6.60;99.90;;;;;;5095553;28;20167;-70
2021/05/07 03:08:13;;;;;;;25.67;23.13;;;6.60;99.90;;;;;;5095421;28;20156;-70
2021/05/07 03:10:38;;;;;;;25.30;22.90;;;6.60;99.90;;;;;;5095332;28;20635;-70
2021/05/07 03:13:04;;;;;;;27.07;24.33;;;6.50;99.90;;;;;;5095152;28;20172;-70
2021/05/07 03:15:30;;;;;;;27.00;24.30;;;6.60;99.90;;;;;;5095326;28;20166;-70
2021/05/07 03:17:56;;;;;;;26.33;23.57;;;6.50;99.90;;;;;;5095459;28;20734;-70
2021/05/07 03:20:22;;;;;;;25.17;22.67;;;6.50;99.90;;;;;;5095193;28;20394;-70
2021/05/07 03:22:48;;;;;;;25.80;23.20;;;6.60;99.90;;;;;;5095061;28;20163;-70
2021/05/07 03:25:14;;;;;;;27.37;24.53;;;6.60;99.90;;;;;;5095309;28;20881;-70
2021/05/07 03:27:40;;;;;;;26.23;23.63;;;6.60;99.90;;;;;;5086617;28;20726;-70
2021/05/07 03:30:06;;;;;;;26.03;23.47;;;6.60;99.90;;;;;;5078560;28;20504;-70
2021/05/07 03:32:32;;;;;;;27.03;24.30;;;6.60;99.90;;;;;;5095059;28;20510;-70
2021/05/07 03:34:58;;;;;;;26.97;24.20;;;6.60;99.90;;;;;;5094907;28;20883;-70
2021/05/07 03:37:23;;;;;;;26.63;23.07;;;6.60;99.90;;;;;;5094930;28;20545;-70
2021/05/07 03:39:49;;;;;;;25.87;23.27;;;6.60;99.90;;;;;;5094783;28;20630;-70
2021/05/07 03:42:14;;;;;;;27.13;24.40;;;6.60;99.90;;;;;;5094750;28;20241;-70
2021/05/07 03:44:40;;;;;;;26.37;23.73;;;6.60;99.90;;;;;;5094731;28;20155;-70
2021/05/07 03:47:05;;;;;;;25.67;22.90;;;6.60;99.90;;;;;;5095021;28;20206;-70
2021/05/07 03:49:31;;;;;;;25.83;22.90;;;6.60;99.90;;;;;;5094742;28;20165;-70
2021/05/07 03:51:57;;;;;;;28.53;24.00;;;6.60;99.90;;;;;;5094568;28;20261;-70
2021/05/07 03:54:23;;;;;;;26.60;23.83;;;6.60;99.90;;;;;;5094011;28;20614;-70
2021/05/07 03:56:49;;;;;;;25.73;23.17;;;6.50;99.90;;;;;;5094285;28;20434;-70
2021/05/07 03:59:15;;;;;;;28.30;25.30;;;6.50;99.90;;;;;;5094350;28;20186;-70
2021/05/07 04:01:40;;;;;;;27.90;25.07;;;6.50;99.90;;;;;;5095100;28;20163;-70
2021/05/07 04:04:08;;;;;;;30.70;27.60;;;6.50;99.90;;;;;;5094413;28;20427;-70
2021/05/07 04:06:33;;;;;;;25.37;22.77;;;6.50;99.90;;;;;;5094423;28;20151;-70
2021/05/07 04:09:18;;;;;;;33.87;27.20;;;6.50;99.90;;;;;;5094430;28;20736;-70
2021/05/07 04:14:24;;;;;;;30.07;26.80;;;6.60;99.90;;;;;;5131316;27;20296;-70
2021/05/07 04:16:50;;;;;;;28.67;25.57;;;6.60;99.90;;;;;;5111212;28;20409;-70
2021/05/07 04:19:16;;;;;;;29.43;26.23;;;6.60;99.90;;;;;;5111210;28;20180;-70
2021/05/07 04:21:42;;;;;;;30.23;27.00;;;6.50;99.90;;;;;;5102557;28;20264;-70
2021/05/07 04:24:08;;;;;;;30.47;27.17;;;6.50;99.90;;;;;;5090302;28;20475;-70
2021/05/07 04:26:34;;;;;;;29.30;26.30;;;6.50;99.90;;;;;;5090426;28;20609;-70
2021/05/07 04:28:59;;;;;;;29.33;26.23;;;6.40;99.90;;;;;;5090113;28;20404;-70
2021/05/07 04:31:25;;;;;;;30.83;26.10;;;6.40;99.90;;;;;;5090868;28;20425;-70
2021/05/07 04:33:51;;;;;;;29.97;26.97;;;6.40;99.90;;;;;;5090302;28;20183;-70
2021/05/07 04:36:17;;;;;;;30.07;25.70;;;6.40;99.90;;;;;;5089988;28;20163;-69
2021/05/07 04:38:42;;;;;;;30.10;26.97;;;6.50;99.90;;;;;;5097991;28;20407;-70
2021/05/07 04:41:08;;;;;;;31.90;27.90;;;6.50;99.90;;;;;;5110427;28;20614;-70
2021/05/07 04:43:34;;;;;;;27.50;24.70;;;6.50;99.90;;;;;;5110301;28;20177;-70
2021/05/07 04:45:59;;;;;;;28.10;25.13;;;6.50;99.90;;;;;;5110825;28;20490;-69
2021/05/07 04:48:25;;;;;;;28.53;25.30;;;6.50;99.90;;;;;;5110205;28;20166;-70
2021/05/07 04:50:50;;;;;;;25.63;23.10;;;6.50;99.90;;;;;;5110279;28;20177;-70
2021/05/07 04:53:16;;;;;;;27.03;23.70;;;6.50;99.90;;;;;;5110066;28;20251;-70
2021/05/07 04:55:41;;;;;;;25.57;22.93;;;6.40;99.90;;;;;;5109466;28;20175;-70
2021/05/07 04:58:07;;;;;;;25.47;22.90;;;6.40;99.90;;;;;;5110027;28;20163;-70
2021/05/07 05:00:32;;;;;;;26.90;24.20;;;6.40;99.90;;;;;;5090964;28;20260;-70
2021/05/07 05:02:58;;;;;;;26.37;23.67;;;6.40;99.90;;;;;;5090098;28;20167;-70
2021/05/07 05:05:24;;;;;;;28.33;24.70;;;6.40;99.90;;;;;;5089706;28;20159;-70
2021/05/07 05:07:55;;;;;;;26.80;24.10;;;6.50;99.90;;;;;;5089458;28;20209;-70
2021/05/07 05:10:20;;;;;;;26.63;23.83;;;6.50;99.90;;;;;;5089713;28;20183;-70
2021/05/07 05:12:46;;;;;;;26.33;23.63;;;6.60;99.90;;;;;;5088606;28;20460;-70
2021/05/07 05:15:13;;;;;;;25.43;22.93;;;6.60;99.90;;;;;;5090252;28;20255;-70
2021/05/07 05:17:39;;;;;;;25.77;22.90;;;6.70;99.90;;;;;;5089550;28;20394;-71
2021/05/07 05:20:06;;;;;;;24.90;22.40;;;6.70;99.90;;;;;;5089460;28;20417;-71
2021/05/07 05:22:31;;;;;;;25.13;22.43;;;6.80;99.90;;;;;;5089379;28;20209;-70
2021/05/07 05:24:58;;;;;;;25.90;22.83;;;6.80;99.90;;;;;;5080439;28;20399;-70
2021/05/07 05:27:24;;;;;;;23.83;21.53;;;6.90;99.90;;;;;;5075882;28;20177;-71
2021/05/07 05:29:50;;;;;;;24.93;22.37;;;7.00;99.90;;;;;;5067475;28;20458;-70
2021/05/07 05:32:15;;;;;;;24.73;22.27;;;7.00;99.90;;;;;;5055576;28;20408;-70
2021/05/07 05:34:41;;;;;;;25.57;22.77;;;7.00;99.90;;;;;;5055671;28;20162;-70
2021/05/07 05:37:06;;;;;;;26.67;23.77;;;7.10;99.90;;;;;;5055510;28;20213;-70
2021/05/07 05:39:32;;;;;;;24.90;22.50;;;7.20;99.90;;;;;;5055330;28;20216;-70
2021/05/07 05:41:58;;;;;;;24.63;21.67;;;7.20;99.90;;;;;;5055500;28;20632;-71
2021/05/07 05:44:23;;;;;;;25.87;21.80;;;7.40;99.90;;;;;;5056504;28;20174;-70
2021/05/07 05:46:49;;;;;;;23.53;21.23;;;7.40;99.90;;;;;;5056005;28;20569;-70
2021/05/07 05:49:14;;;;;;;28.87;23.37;;;7.40;99.90;;;;;;5055526;28;20197;-70
2021/05/07 05:51:40;;;;;;;26.13;23.20;;;7.40;99.90;;;;;;5055384;28;20191;-70
2021/05/07 05:54:06;;;;;;;28.20;25.20;;;7.40;99.90;;;;;;5055063;28;20578;-69
2021/05/07 05:56:32;;;;;;;30.23;24.70;;;7.40;99.90;;;;;;5055132;28;20201;-71
2021/05/07 05:58:58;;;;;;;28.77;25.83;;;7.40;99.90;;;;;;5055793;28;20432;-70
2021/05/07 06:01:24;;;;;;;31.20;27.17;;;7.40;99.90;;;;;;5055294;28;20384;-71
2021/05/07 06:03:49;;;;;;;30.13;26.83;;;7.30;99.90;;;;;;5055842;28;20177;-68
2021/05/07 06:06:15;;;;;;;31.10;26.43;;;7.30;99.90;;;;;;5054961;28;20162;-71
2021/05/07 06:08:41;;;;;;;28.10;25.30;;;7.30;99.90;;;;;;5054725;28;20166;-70
2021/05/07 06:11:06;;;;;;;28.37;25.43;;;7.40;99.90;;;;;;5055376;28;20399;-70
2021/05/07 06:13:32;;;;;;;29.07;26.10;;;7.40;99.90;;;;;;5055202;28;20735;-70
2021/05/07 06:15:58;;;;;;;21.40;19.30;;;7.40;99.90;;;;;;5055207;28;20513;-70
2021/05/07 06:18:23;;;;;;;19.80;17.80;;;7.40;99.90;;;;;;5054863;28;20227;-70
2021/05/07 06:20:52;;;;;;;21.90;18.20;;;7.40;99.90;;;;;;5055340;28;20181;-70
2021/05/07 06:23:18;;;;;;;20.90;18.40;;;7.50;99.90;;;;;;5054874;28;20168;-70
2021/05/07 06:25:43;;;;;;;24.80;22.07;;;7.40;99.90;;;;;;5054925;28;20932;-71
2021/05/07 06:28:09;;;;;;;28.57;24.40;;;7.40;99.90;;;;;;5067468;28;20177;-70
2021/05/07 06:30:35;;;;;;;36.53;25.63;;;7.40;99.90;;;;;;5074450;28;20171;-70
2021/05/07 06:33:00;;;;;;;19.97;16.53;;;7.30;99.90;;;;;;5074291;28;20254;-71
2021/05/07 06:35:26;;;;;;;16.40;13.77;;;7.20;99.90;;;;;;5074258;28;20219;-70
2021/05/07 06:37:51;;;;;;;17.23;14.97;;;7.10;99.90;;;;;;5064425;28;20172;-71
2021/05/07 06:40:17;;;;;;;17.80;16.00;;;6.90;99.90;;;;;;5054242;28;20180;-70
2021/05/07 06:42:46;;;;;;;19.53;15.73;;;6.80;99.90;;;;;;5053603;28;20702;-70
2021/05/07 06:45:12;;;;;;;14.67;13.10;;;6.70;99.90;;;;;;5054237;28;20383;-70
2021/05/07 06:47:38;;;;;;;13.60;12.30;;;6.60;99.90;;;;;;5052662;28;20414;-70
2021/05/07 06:50:06;;;;;;;13.30;11.93;;;6.50;99.90;;;;;;5054143;28;20743;-71
2021/05/07 06:52:32;;;;;;;12.93;11.70;;;6.50;99.90;;;;;;5053558;28;20438;-71
2021/05/07 06:54:58;;;;;;;12.70;11.37;;;6.50;99.90;;;;;;5055568;28;20907;-71
2021/05/07 06:57:24;;;;;;;12.43;11.23;;;6.40;99.90;;;;;;5056965;28;20939;-71
2021/05/07 06:59:50;;;;;;;12.10;10.60;;;6.50;99.90;;;;;;5063712;28;20528;-70
2021/05/07 07:02:16;;;;;;;12.23;11.07;;;6.50;99.90;;;;;;5064744;28;20652;-70
2021/05/07 07:04:43;;;;;;;12.70;11.40;;;6.40;99.90;;;;;;5061063;28;20805;-70
2021/05/07 07:07:08;;;;;;;11.17;10.07;;;6.40;99.90;;;;;;5073327;28;20923;-70
2021/05/07 07:09:34;;;;;;;13.17;9.53;;;6.40;99.90;;;;;;5066798;28;20406;-71
2021/05/07 07:11:59;;;;;;;10.87;9.87;;;6.40;99.90;;;;;;5064622;28;20591;-71
2021/05/07 07:14:25;;;;;;;11.50;10.40;;;6.30;99.90;;;;;;5069576;28;20186;-70
2021/05/07 07:16:51;;;;;;;11.87;10.67;;;6.30;99.90;;;;;;5064454;28;20173;-70
2021/05/07 07:19:16;;;;;;;12.30;11.10;;;6.20;99.90;;;;;;5066273;28;20181;-70
2021/05/07 07:21:42;;;;;;;12.33;11.13;;;6.10;99.90;;;;;;5072902;28;20236;-70
2021/05/07 07:24:08;;;;;;;12.53;11.23;;;6.00;99.90;;;;;;5066486;28;20175;-70
2021/05/07 07:26:34;;;;;;;13.13;11.83;;;5.90;99.90;;;;;;5068168;28;20204;-71
2021/05/07 07:28:59;;;;;;;12.20;11.00;;;5.80;99.90;;;;;;5070056;28;20446;-70
2021/05/07 07:31:25;;;;;;;13.73;12.43;;;5.70;99.90;;;;;;5072733;28;20179;-70
2021/05/07 07:33:51;;;;;;;14.17;12.73;;;5.60;99.90;;;;;;5066925;28;20229;-71
2021/05/07 07:36:16;;;;;;;14.30;13.00;;;5.50;99.90;;;;;;5072923;28;20183;-70
2021/05/07 07:38:42;;;;;;;13.60;12.20;;;5.30;99.90;;;;;;5068843;28;20674;-71
2021/05/07 07:41:07;;;;;;;14.57;13.10;;;5.20;99.90;;;;;;5072052;28;20260;-71
2021/05/07 07:43:33;;;;;;;13.30;12.07;;;5.10;99.90;;;;;;5072402;28;20168;-70
2021/05/07 07:45:59;;;;;;;14.13;12.63;;;5.00;99.90;;;;;;5066057;28;20179;-71
2021/05/07 07:48:25;;;;;;;14.70;13.40;;;4.90;99.90;;;;;;5053278;28;20173;-70
2021/05/07 07:50:51;;;;;;;15.30;13.80;;;4.80;99.90;;;;;;5054603;28;20421;-70
2021/05/07 07:53:16;;;;;;;15.37;13.77;;;4.80;99.90;;;;;;5053912;28;20192;-71
2021/05/07 07:55:42;;;;;;;15.17;13.67;;;4.80;99.90;;;;;;5054212;28;20294;-70
2021/05/07 07:58:08;;;;;;;13.80;12.50;;;4.90;99.90;;;;;;5057511;28;20165;-69
2021/05/07 08:00:34;;;;;;;13.13;11.93;;;4.80;99.90;;;;;;5055155;28;20537;-69
2021/05/07 08:03:00;;;;;;;14.27;12.97;;;4.80;99.90;;;;;;5065917;28;20915;-69
2021/05/07 08:05:26;;;;;;;12.93;11.67;;;4.70;99.90;;;;;;5063940;28;20430;-69
2021/05/07 08:07:56;;;;;;;13.83;12.57;;;4.80;99.90;;;;;;5074227;28;20232;-69
2021/05/07 08:10:21;;;;;;;12.67;11.50;;;4.80;99.90;;;;;;5071377;28;20179;-69
2021/05/07 08:12:47;;;;;;;13.83;12.47;;;5.00;99.90;;;;;;5065070;28;20514;-69
2021/05/07 08:15:12;;;;;;;12.43;11.23;;;5.10;99.90;;;;;;5067599;28;20182;-69
2021/05/07 08:17:38;;;;;;;11.93;10.93;;;5.10;99.90;;;;;;5069005;28;20643;-69
2021/05/07 08:20:05;;;;;;;12.93;11.83;;;5.20;99.90;;;;;;5064632;28;20170;-70
2021/05/07 08:22:30;;;;;;;12.80;11.70;;;5.30;99.90;;;;;;5067445;28;20209;-70
2021/05/07 08:24:56;;;;;;;12.33;11.23;;;5.40;99.90;;;;;;5064115;28;20446;-70
2021/05/07 08:27:21;;;;;;;12.70;11.53;;;5.60;99.90;;;;;;5064685;28;20171;-70
2021/05/07 08:29:47;;;;;;;11.80;10.80;;;5.70;99.90;;;;;;5069921;28;20177;-70
2021/05/07 08:32:13;;;;;;;11.53;10.43;;;5.90;99.90;;;;;;5071787;28;20185;-70
2021/05/07 08:34:42;;;;;;;12.67;11.47;;;6.00;99.90;;;;;;5072171;28;20443;-70
2021/05/07 08:37:08;;;;;;;10.93;9.93;;;6.20;99.90;;;;;;5062204;28;20637;-70
2021/05/07 08:39:34;;;;;;;11.03;10.07;;;6.50;99.90;;;;;;5052488;28;20430;-70
2021/05/07 08:42:00;;;;;;;10.90;9.90;;;6.60;99.90;;;;;;5052315;28;20396;-70
2021/05/07 08:44:25;;;;;;;10.40;9.50;;;6.80;99.90;;;;;;5052548;28;20216;-70
2021/05/07 08:46:52;;;;;;;9.77;8.97;;;7.20;99.90;;;;;;5053007;28;20181;-70
2021/05/07 08:49:18;;;;;;;9.50;8.57;;;7.50;99.90;;;;;;5062769;28;20180;-70
2021/05/07 08:51:44;;;;;;;9.03;8.10;;;7.70;99.90;;;;;;5058562;28;20417;-70
2021/05/07 08:54:10;;;;;;;9.13;8.23;;;7.90;99.90;;;;;;5057878;28;20487;-70
2021/05/07 08:56:37;;;;;;;9.63;8.63;;;8.50;99.90;;;;;;5052503;28;20156;-70
2021/05/07 08:59:04;;;;;;;7.10;6.50;;;9.20;99.90;;;;;;5069322;28;20958;-70
2021/05/07 09:04:16;;;;;;;7.40;6.80;;;10.10;99.90;;;;;;5112624;27;20514;-70
2021/05/07 09:06:49;;;;;;;7.47;6.87;;;10.30;99.90;;;;;;5110802;28;20841;-70
2021/05/07 09:09:17;;;;;;;6.20;5.40;;;10.70;99.90;;;;;;5110496;28;20802;-70
2021/05/07 09:11:43;;;;;;;5.10;4.60;;;11.40;99.90;;;;;;5109998;28;20472;-70
2021/05/07 09:14:10;;;;;;;4.07;3.47;;;12.30;99.90;;;;;;5110685;28;20380;-70
2021/05/07 09:16:35;;;;;;;3.80;3.50;;;13.20;99.90;;;;;;5110355;28;20524;-70
2021/05/07 09:19:01;;;;;;;4.70;4.40;;;13.60;99.90;;;;;;5110914;28;20419;-70
2021/05/07 09:21:26;;;;;;;4.07;3.50;;;13.40;99.90;;;;;;5110690;28;20174;-70
2021/05/07 09:23:53;;;;;;;5.37;3.73;;;13.10;99.90;;;;;;5110398;28;20193;-70
2021/05/07 09:26:19;;;;;;;4.33;4.03;;;12.80;99.90;;;;;;5110217;28;20609;-70
2021/05/07 09:28:53;;;;;;;4.40;4.10;;;12.30;99.90;;;;;;5110141;28;20412;-70
2021/05/07 09:31:20;;;;;;;3.90;2.83;;;12.20;99.90;;;;;;5109719;28;20177;-70
2021/05/07 09:33:47;;;;;;;3.90;3.60;;;12.20;99.90;;;;;;5111020;28;20394;-70
2021/05/07 09:36:29;;;;;;;3.27;2.97;;;12.40;99.90;;;;;;5110147;28;20412;-70
2021/05/07 09:38:59;;;;;;;4.03;3.20;;;12.70;99.90;;;;;;5109992;28;20400;-70
2021/05/07 09:41:25;;;;;;;4.50;3.20;;;12.70;99.90;;;;;;5109601;28;20416;-70
2021/05/07 09:43:51;;;;;;;3.80;3.47;;;12.80;99.90;;;;;;5110110;28;20442;-70
2021/05/07 09:46:16;;;;;;;3.20;3.00;;;12.80;99.90;;;;;;5110220;28;20837;-70
2021/05/07 09:48:42;;;;;;;4.60;4.20;;;12.80;99.90;;;;;;5111240;28;20197;-70
2021/05/07 09:51:09;;;;;;;2.70;2.50;;;12.70;99.90;;;;;;5110235;28;20542;-70
2021/05/07 09:53:38;;;;;;;2.50;2.30;;;12.80;99.90;;;;;;5110507;28;20169;-70
2021/05/07 09:56:19;;;;;;;2.53;2.20;;;12.70;99.90;;;;;;5109999;28;20442;-70
2021/05/07 09:58:45;;;;;;;2.50;2.30;;;12.60;99.90;;;;;;5109720;28;20435;-70
2021/05/07 10:01:11;;;;;;;3.53;2.50;;;12.80;99.40;;;;;;5109775;28;20412;-70
2021/05/07 10:03:37;;;;;;;3.20;2.10;;;12.80;99.20;;;;;;5111618;28;20198;-71
2021/05/07 10:06:04;;;;;;;2.93;2.53;;;12.90;99.90;;;;;;5110135;28;20626;-70
2021/05/07 10:08:31;;;;;;;2.30;2.07;;;12.80;99.90;;;;;;5110333;28;20414;-70
2021/05/07 10:10:58;;;;;;;3.67;2.37;;;12.60;99.90;;;;;;5109769;28;20412;-70
2021/05/07 10:13:26;;;;;;;3.10;2.50;;;12.50;99.90;;;;;;5109296;28;20469;-70
2021/05/07 10:16:09;;;;;;;2.27;2.07;;;12.50;98.60;;;;;;5095170;28;20440;-70
2021/05/07 10:18:37;;;;;;;4.67;3.70;;;12.70;99.90;;;;;;5088247;28;20453;-70
2021/05/07 10:23:51;;;;;;;5.40;4.87;;;12.80;99.90;;;;;;5110730;27;20513;-75
2021/05/07 10:26:17;;;;;;;8.57;5.90;;;12.60;99.80;;;;;;5110299;28;20407;-75
2021/05/07 10:31:22;;;;;;;6.27;5.67;;;12.60;99.90;;;;;;5100383;27;20518;-70
2021/05/07 10:34:05;;;;;;;7.73;5.57;;;12.40;98.90;;;;;;5092554;28;20801;-69
2021/05/07 10:36:36;;;;;;;6.97;6.10;;;12.30;97.40;;;;;;5090194;28;20261;-70
2021/05/07 10:39:02;;;;;;;6.63;6.03;;;12.20;98.20;;;;;;5090643;28;20435;-69
2021/05/07 10:41:34;;;;;;;6.70;6.10;;;12.20;98.00;;;;;;5089828;28;20396;-69
2021/05/07 10:44:00;;;;;;;6.37;5.87;;;12.10;98.10;;;;;;5090530;28;20395;-69
2021/05/07 10:46:26;;;;;;;6.37;5.30;;;11.90;98.10;;;;;;5091834;28;20449;-70
2021/05/07 10:48:55;;;;;;;5.73;5.23;;;11.80;96.80;;;;;;5090892;28;20395;-69
2021/05/07 10:51:22;;;;;;;9.50;5.67;;;11.70;96.40;;;;;;5089919;28;20426;-69
2021/05/07 10:53:49;;;;;;;5.97;5.37;;;11.70;96.60;;;;;;5090156;28;20413;-69
2021/05/07 10:58:52;;;;;;;5.40;5.00;;;11.80;96.20;;;;;;5110885;27;20517;-69
2021/05/07 11:01:33;;;;;;;6.70;6.00;;;12.00;97.20;;;;;;5101953;28;20444;-70
2021/05/07 11:06:42;;;;;;;8.33;4.10;;;12.20;97.40;;;;;;5110266;27;20513;-70
2021/05/07 11:09:17;;;;;;;4.77;4.20;;;12.30;96.20;;;;;;5102986;28;20406;-70
2021/05/07 11:11:44;;;;;;;3.80;3.40;;;12.50;96.80;;;;;;5110307;28;20411;-70
2021/05/07 11:14:13;;;;;;;3.30;3.00;;;12.60;95.20;;;;;;5110591;28;20402;-70
2021/05/07 11:16:40;;;;;;;7.23;4.10;;;12.60;94.20;;;;;;5112071;28;20430;-70
2021/05/07 11:19:05;;;;;;;3.87;3.27;;;12.70;93.10;;;;;;5107388;28;20790;-70
2021/05/07 11:21:31;;;;;;;4.20;3.20;;;12.80;92.00;;;;;;5090656;28;20417;-70
2021/05/07 11:23:58;;;;;;;4.13;3.33;;;12.70;92.50;;;;;;5090508;28;20189;-70
2021/05/07 11:26:39;;;;;;;4.30;3.20;;;12.60;93.70;;;;;;5084162;28;20450;-70
2021/05/07 11:29:05;;;;;;;3.10;2.80;;;12.30;93.50;;;;;;5070485;28;20786;-70
2021/05/07 11:31:30;;;;;;;4.40;3.27;;;12.10;95.80;;;;;;5083914;28;20462;-70
2021/05/07 11:33:56;;;;;;;4.43;3.87;;;12.00;97.60;;;;;;5090401;28;20177;-70
2021/05/07 11:36:22;;;;;;;4.53;3.13;;;11.90;96.80;;;;;;5094069;28;20600;-70
2021/05/07 11:38:48;;;;;;;4.90;2.77;;;11.90;98.00;;;;;;5094994;28;20169;-70
2021/05/07 11:41:23;;;;;;;3.10;2.80;;;12.00;96.50;;;;;;5108589;28;20165;-70
2021/05/07 11:43:50;;;;;;;2.90;2.53;;;12.20;94.90;;;;;;5092050;28;20858;-70
2021/05/07 11:46:16;;;;;;;2.80;2.47;;;12.40;93.90;;;;;;5085472;28;20445;-70
2021/05/07 11:48:46;;;;;;;4.67;2.83;;;12.60;94.50;;;;;;5090197;28;20807;-70
2021/05/07 11:51:12;;;;;;;3.80;2.50;;;12.80;93.50;;;;;;5092177;28;20398;-70
2021/05/07 11:53:37;;;;;;;4.47;4.07;;;12.70;91.60;;;;;;5089801;28;20504;-70
2021/05/07 11:56:05;;;;;;;4.47;2.70;;;12.70;94.10;;;;;;5089845;28;20170;-70
2021/05/07 11:58:35;;;;;;;4.40;3.03;;;12.60;94.20;;;;;;5090368;28;20428;-70
2021/05/07 12:01:04;;;;;;;3.90;2.70;;;12.50;93.80;;;;;;5095907;28;21011;-70
2021/05/07 12:03:38;;;;;;;3.63;2.87;;;12.30;93.30;;;;;;5110046;28;20391;-70
2021/05/07 12:06:25;;;;;;;4.57;2.80;;;12.20;93.20;;;;;;5100552;28;20466;-70
2021/05/07 12:08:52;;;;;;;4.60;2.93;;;12.30;94.80;;;;;;5089399;28;20407;-70
2021/05/07 12:11:19;;;;;;;3.37;2.57;;;12.40;95.50;;;;;;5089773;28;20448;-70
2021/05/07 12:13:47;;;;;;;2.97;2.47;;;12.50;92.20;;;;;;5090483;28;20802;-70
2021/05/07 12:16:13;;;;;;;4.17;3.27;;;12.50;91.90;;;;;;5095476;28;20417;-70
2021/05/07 12:18:48;;;;;;;4.13;3.33;;;12.40;90.60;;;;;;5064647;28;20556;-70
2021/05/07 12:21:13;;;;;;;3.43;2.80;;;12.30;91.70;;;;;;5088314;28;20770;-70
2021/05/07 12:26:19;;;;;;;5.50;3.30;;;12.40;92.40;;;;;;5110332;27;20522;-70
2021/05/07 12:29:00;;;;;;;3.63;3.33;;;12.50;91.80;;;;;;5111815;28;20418;-70
2021/05/07 12:31:29;;;;;;;9.40;4.00;;;12.50;90.20;;;;;;5099012;28;20901;-70
2021/05/07 12:33:56;;;;;;;6.17;2.80;;;12.50;90.50;;;;;;5088745;28;20396;-70
2021/05/07 12:36:23;;;;;;;3.30;3.07;;;12.40;88.70;;;;;;5081815;28;20404;-70
2021/05/07 12:38:48;;;;;;;2.83;2.63;;;12.30;89.80;;;;;;5090418;28;20381;-70
2021/05/07 12:41:20;;;;;;;4.37;3.10;;;12.40;91.60;;;;;;5094508;28;20404;-70
2021/05/07 12:43:49;;;;;;;3.27;2.97;;;12.40;88.80;;;;;;5106187;28;20626;-70
2021/05/07 12:46:16;;;;;;;6.07;3.40;;;12.50;83.10;;;;;;5099851;28;20421;-70
2021/05/07 12:48:48;;;;;;;4.07;3.77;;;12.50;85.70;;;;;;5090304;28;20425;-70
2021/05/07 12:51:14;;;;;;;3.97;3.30;;;12.50;83.10;;;;;;5088039;28;20777;-70
2021/05/07 12:53:42;;;;;;;4.53;2.87;;;12.50;84.20;;;;;;5069696;28;20398;-70
2021/05/07 12:56:11;;;;;;;3.00;2.70;;;12.50;82.00;;;;;;5092000;28;20427;-70
2021/05/07 12:58:36;;;;;;;2.57;2.37;;;12.50;75.20;;;;;;5110820;28;20931;-70
2021/05/07 13:01:02;;;;;;;2.90;2.67;;;12.60;76.90;;;;;;5100420;28;20407;-70
2021/05/07 13:03:28;;;;;;;5.70;3.10;;;12.70;77.20;;;;;;5089931;28;20167;-70
2021/05/07 13:05:53;;;;;;;3.77;3.47;;;12.80;77.10;;;;;;5089981;28;20557;-70